Flight Track Log - Related Links

Times and Time Zones

All times are in EST time to prevent confusion due to time zone crossing. See the ASQ6118 flight status page for this flight to view local times or setup timezone preferences in your user account.

Time Position Orientation Groundspeed Altitude Reporting Facility
EST Latitude Longitude Course Direction KTS MPH feet Rate Location/Type
Sun 08:13:14 PM 30.5322 -96.3458 167° South 182 209 3,000  Level Houston Center
Sun 08:14:11 PM 30.5164 -96.2856 107° East 262 302 4,900 2,200 Climbing Houston Center
Sun 08:14:14 PM 30.5133 -96.2728 106° East 273 314 5,200 1,859 Climbing Houston Center
Sun 08:15:22 PM 30.4961 -96.1658 101° East 291 335 7,100 893 Climbing Houston Center
Sun 08:16:15 PM 30.4856 -96.0856 99° East 295 339 7,000  Descending Houston Center
Sun 08:16:17 PM 30.4844 -96.0797 102° East 296 341 7,100  Climbing Houston Center
Sun 08:17:17 PM 30.4417 -96.0039 123° Southeast 298 343 7,000 -90 Descending Houston Center
Sun 08:17:24 PM 30.4353 -95.9958 133° Southeast 297 342 7,000  Level Houston Center
Sun 08:18:19 PM 30.3925 -95.9289 127° Southeast 292 336 7,000  Level Houston Center
Sun 08:19:14 PM 30.3436 -95.8589 129° Southeast 294 338 7,000  Level Houston Center
Sun 08:19:21 PM 30.3425 -95.8542 105° East 294 338 7,000  Level Houston Center
Sun 08:20:21 PM 30.2903 -95.7756 128° Southeast 287 330 7,000  Level Houston Center
Sun 08:20:22 PM 30.2942 -95.7819 305° West 286 329 7,000  Level Houston Center
Sun 08:21:16 PM 30.2447 -95.7106 129° Southeast 294 338 7,000  Level Houston Center
Sun 08:21:24 PM 30.2447 -95.7064 90° East 293 337 7,000  Level Houston Center
Sun 08:22:26 PM 30.1947 -95.6336 128° Southeast 290 334 7,000  Level Houston Center
Sun 08:23:24 PM 30.1403 -95.5514 127° Southeast 288 331 7,000  Level Houston Center
Sun 08:23:28 PM 30.1358 -95.5442 125° Southeast 291 335 7,000  Level Houston Center
Sun 08:24:30 PM 30.1058 -95.4603 112° Southeast 293 337 7,000  Level Houston Center
Sun 08:25:32 PM 30.1064 -95.3678 90° East 290 334 7,000  Level Houston Center
Sun 08:26:28 PM 30.1056 -95.2875 91° East 255 293 7,000  Level Houston Center
Sun 08:26:34 PM 30.1056 -95.2867 90° East 259 298 7,000 -900 Level Houston Center
Sun 08:27:28 PM 30.1067 -95.2078 89° East 243 280 6,100 -871 Descending Houston Center
Sun 08:27:36 PM 30.1064 -95.2069 111° Southeast 250 288 6,100 -1,377 Level Houston Center
Sun 08:28:29 PM 30.1039 -95.1308 92° East 242 278 4,700 -1,355 Descending Houston Center
Sun 08:28:38 PM 30.1039 -95.1306 90° East 242 278 4,700 -764 Level Houston Center
Sun 08:29:24 PM 30.0497 -95.1156 167° South 224 258 4,000 -774 Descending Houston Center
Sun 08:29:40 PM 30.0458 -95.1161 187° South 235 270 3,900 -1,377 Descending Houston Center
Sun 08:30:25 PM 30.0083 -95.1667 229° Southwest 214 246 2,600 -1,452 Descending Houston Center
Sun 08:30:42 PM 30.0008 -95.1778 232° Southwest 213 245 2,400 -689 Descending Houston Center
Sun 08:31:26 PM 29.9944 -95.2189 260° West 163 188 1,900 -677 Descending Houston Center
Sun 08:31:44 PM 29.9936 -95.2294 265° West 179 206 1,700 -677 Descending Houston Center
Sun 08:32:28 PM 29.9922 -95.2628 267° West 126 145 1,200 -677 Descending Houston Center
Sun 08:32:46 PM 29.9936 -95.2708 281° West 145 167 1,000 -727 Descending Houston Center
Sun 08:33:34 PM 29.9922 -95.3086 268° West 129 148 400 -590 Descending Houston Center
Sun 08:33:47 PM 29.9931 -95.3108 293° West 134 154 400  Level Houston Center

Login

Don't have an account? Register now (free) for customized features, flight alerts, and more!